Hovedside
METAR-TAF:

METAR-TAF

Lufthavner :

Haugesund lufthavn. Karmøy

Haugesund, Norge

breddegrad: 59-21N, lengdegrad: 005-13E, høyde over havet: 2 m

Gjeldene værobservasjon

Denne rapporten ble laget for 37 minutter siden, klokken 16:50 UTC
Vind 16 kt fra Nord
Temperatur 14°C
Luftfuktighet 77%
Trykk 1028 hPa
Sikt 10 km eller mer
ingen skyer under 1500 m og ingen bygeskyer

METAR: ENHD 261650Z 35016KT CAVOK 14/10 Q1028

Tid: 19:27 (17:27 UTC)


TAF: fraværende

Værobservasjoner og værvarsel for over 4000 flyplasser (METAR- og TAF-rapporter).

Tilgjengelige stasjoner er representert av de røde og gule prikkene på kartet.

Hold musepekeren over prikken for å se navnet på stasjonen.

Klikk så for å se værobservasjoner og -varsler.

For å forandre kartet kan du klikke på den grønne knappen med svart kryss for å zoome inn, på den grønne knappen med strek for å zoome ut, eller på de grønne pilene for å se tilstøtende kart.


METAR-TAF: